Time;durP1;ratioP1;P1;durP2;ratioP2;P2;SDS_P1;SDS_P2;PMS_P1;PMS_P2;Temp;Humidity;BMP_temperature;BMP_pressure;BME280_temperature;BME280_humidity;BME280_pressure;Samples;Min_cycle;Max_cycle;Signal;HPM_P1;HPM_P2
2021/11/16 00:01:05;;;;;;;21.82;12.55;;;;;;;2.11;84.39;98974.86;1693878;85;22145;-83
2021/11/16 00:03:32;;;;;;;19.00;10.82;;;;;;;2.07;84.18;98986.11;1694131;85;21482;-83
2021/11/16 00:05:59;;;;;;;24.80;11.88;;;;;;;2.02;82.68;98970.75;1693709;85;21620;-84
2021/11/16 00:08:26;;;;;;;21.45;11.83;;;;;;;1.93;84.69;98976.67;1677891;84;21050;-82
2021/11/16 00:10:53;;;;;;;23.95;13.65;;;;;;;1.85;84.14;98976.93;1673099;85;21559;-83
2021/11/16 00:13:19;;;;;;;25.27;13.48;;;;;;;1.82;85.06;98956.84;1668605;85;21058;-85
2021/11/16 00:15:47;;;;;;;27.40;15.08;;;;;;;1.82;83.87;98973.83;1665006;86;21049;-86
2021/11/16 00:18:17;;;;;;;27.80;14.53;;;;;;;1.80;83.44;98960.27;1683036;84;21485;-86
2021/11/16 00:20:45;;;;;;;30.23;14.80;;;;;;;1.77;84.96;98960.19;1687839;84;21048;-85
2021/11/16 00:23:21;;;;;;;29.02;14.83;;;;;;;1.76;84.00;98958.43;1687640;85;21037;-86
2021/11/16 00:25:51;;;;;;;25.40;13.88;;;;;;;1.71;83.67;98967.05;1687886;85;21060;-85
2021/11/16 00:28:19;;;;;;;28.85;15.58;;;;;;;1.71;83.28;98951.37;1688077;84;21021;-85
2021/11/16 00:30:46;;;;;;;32.00;16.17;;;;;;;1.69;83.49;98967.86;1687777;85;21093;-85
2021/11/16 00:33:12;;;;;;;30.08;15.80;;;;;;;1.66;83.16;98967.38;1687820;85;21048;-86
2021/11/16 00:35:39;;;;;;;29.90;14.68;;;;;;;1.66;83.08;98968.68;1677610;85;21396;-85
2021/11/16 00:38:10;;;;;;;27.00;15.18;;;;;;;1.65;83.99;98968.23;1683535;84;21025;-85
2021/11/16 00:40:38;;;;;;;29.92;15.48;;;;;;;1.64;83.41;98979.95;1668457;85;21097;-85
2021/11/16 00:43:09;;;;;;;29.15;15.93;;;;;;;1.62;83.39;98969.45;1687942;85;21066;-85
2021/11/16 00:45:40;;;;;;;29.67;15.88;;;;;;;1.61;85.58;98974.23;1688165;85;22133;-85
2021/11/16 00:48:08;;;;;;;29.48;15.90;;;;;;;1.58;83.65;98971.13;1698780;84;21061;-85
2021/11/16 00:50:39;;;;;;;32.08;16.15;;;;;;;1.55;85.02;98973.69;1704764;83;21417;-85
2021/11/16 00:53:06;;;;;;;29.25;15.10;;;;;;;1.55;83.90;98980.22;1704762;84;20990;-86
2021/11/16 00:55:34;;;;;;;30.23;14.65;;;;;;;1.54;84.55;98978.88;1704826;83;21081;-85
2021/11/16 00:58:00;;;;;;;26.40;14.83;;;;;;;1.52;84.00;98979.25;1694597;84;21038;-86
2021/11/16 01:00:27;;;;;;;30.30;13.98;;;;;;;1.51;84.27;98973.16;1684496;85;21018;-86
2021/11/16 01:02:56;;;;;;;27.87;14.43;;;;;;;1.50;83.60;98971.36;1682745;85;21066;-85
2021/11/16 01:05:23;;;;;;;27.42;13.45;;;;;;;1.46;83.43;98973.48;1682709;85;20990;-85
2021/11/16 01:07:50;;;;;;;29.63;14.60;;;;;;;1.45;83.23;98979.11;1694158;84;20990;-85
2021/11/16 01:10:20;;;;;;;28.02;13.58;;;;;;;1.45;83.05;98986.95;1704538;84;21081;-85
2021/11/16 01:12:47;;;;;;;27.85;13.65;;;;;;;1.44;83.09;98982.58;1704793;84;21033;-87
2021/11/16 01:15:16;;;;;;;25.27;13.98;;;;;;;1.41;83.32;98978.58;1702780;84;22471;-86
2021/11/16 01:17:44;;;;;;;27.40;13.25;;;;;;;1.39;83.38;98977.67;1688246;85;21085;-86
2021/11/16 01:20:13;;;;;;;24.85;14.25;;;;;;;1.39;83.66;98982.90;1687973;85;21432;-86
2021/11/16 01:22:41;;;;;;;30.90;14.10;;;;;;;1.39;83.71;98979.39;1688005;85;21047;-86
2021/11/16 01:25:10;;;;;;;26.00;14.85;;;;;;;1.41;83.73;98980.33;1688944;84;21026;-86
2021/11/16 01:27:39;;;;;;;29.85;15.98;;;;;;;1.43;83.75;98977.31;1704934;84;21186;-86
2021/11/16 01:30:11;;;;;;;27.52;13.78;;;;;;;1.42;84.12;98987.31;1704719;84;21018;-86
2021/11/16 01:32:48;;;;;;;28.17;15.45;;;;;;;1.41;84.18;98985.55;1704504;84;21017;-86
2021/11/16 01:35:15;;;;;;;25.68;13.93;;;;;;;1.36;84.20;98976.28;1703082;84;20995;-86
2021/11/16 01:37:42;;;;;;;26.97;14.85;;;;;;;1.35;83.99;98981.47;1694358;85;21081;-85
2021/11/16 01:40:15;;;;;;;27.30;14.10;;;;;;;1.30;83.69;98976.15;1696142;85;21436;-85
2021/11/16 01:42:45;;;;;;;24.43;14.10;;;;;;;1.24;83.57;98980.79;1696117;84;21034;-85
2021/11/16 01:45:12;;;;;;;25.60;13.95;;;;;;;1.16;83.83;98981.91;1671017;83;21034;-86
2021/11/16 01:47:40;;;;;;;28.05;15.15;;;;;;;1.11;83.60;98976.11;1695971;84;21365;-85
2021/11/16 01:50:08;;;;;;;26.52;14.47;;;;;;;1.07;84.26;98982.99;1695982;84;21468;-85
2021/11/16 01:52:37;;;;;;;29.00;14.55;;;;;;;1.04;83.84;98977.72;1696095;84;21093;-85
2021/11/16 01:55:08;;;;;;;29.67;14.53;;;;;;;1.01;84.05;98976.33;1695888;84;21007;-85
2021/11/16 01:57:35;;;;;;;27.98;14.05;;;;;;;0.96;83.70;98960.56;1692825;83;20989;-85
2021/11/16 02:00:12;;;;;;;22.75;13.68;;;;;;;0.95;83.82;98965.30;1690732;84;21032;-85
2021/11/16 02:02:39;;;;;;;25.37;14.15;;;;;;;0.92;83.58;98963.94;1690804;84;21397;-85
2021/11/16 02:05:07;;;;;;;28.20;14.47;;;;;;;0.90;83.58;98959.08;1690965;84;21478;-85
2021/11/16 02:07:35;;;;;;;25.82;14.40;;;;;;;0.86;85.63;98958.53;1690581;85;21017;-85
2021/11/16 02:10:04;;;;;;;30.50;13.85;;;;;;;0.80;84.24;98952.77;1690889;84;21016;-85
2021/11/16 02:12:30;;;;;;;25.55;13.60;;;;;;;0.78;83.95;98951.41;1690812;84;21075;-86
2021/11/16 02:14:57;;;;;;;24.12;13.13;;;;;;;0.78;84.04;98954.44;1694988;83;20993;-86
2021/11/16 02:17:23;;;;;;;29.95;14.03;;;;;;;0.76;83.90;98959.64;1691034;84;21029;-84
2021/11/16 02:19:51;;;;;;;24.15;12.90;;;;;;;0.74;83.75;98954.78;1691010;84;20997;-84
2021/11/16 02:22:17;;;;;;;28.92;14.63;;;;;;;0.72;83.66;98972.14;1690776;85;21137;-84
2021/11/16 02:24:46;;;;;;;28.12;14.83;;;;;;;0.68;83.84;98965.07;1700038;83;20985;-84
2021/11/16 02:27:12;;;;;;;27.30;14.05;;;;;;;0.64;83.79;98965.83;1678071;85;21074;-84
2021/11/16 02:29:40;;;;;;;26.15;13.60;;;;;;;0.65;83.81;98967.18;1691900;85;21046;-85
2021/11/16 02:32:08;;;;;;;25.20;12.93;;;;;;;0.63;84.35;98959.72;1668172;86;21476;-85
2021/11/16 02:34:34;;;;;;;29.23;14.83;;;;;;;0.65;84.38;98968.89;1681674;83;21022;-85
2021/11/16 02:37:01;;;;;;;25.85;14.68;;;;;;;0.70;84.38;98955.98;1690985;85;21038;-86
2021/11/16 02:39:28;;;;;;;28.32;13.62;;;;;;;0.73;84.25;98957.34;1681539;85;21039;-86
2021/11/16 02:41:55;;;;;;;23.98;12.98;;;;;;;0.72;84.34;98949.06;1656412;87;21062;-86
2021/11/16 02:44:23;;;;;;;25.23;14.00;;;;;;;0.74;84.36;98946.06;1665702;85;20967;-86
2021/11/16 02:46:51;;;;;;;27.37;14.60;;;;;;;0.77;84.58;98948.76;1659359;84;21050;-87
2021/11/16 02:49:19;;;;;;;32.75;14.40;;;;;;;0.83;84.65;98946.73;1656573;86;21038;-86
2021/11/16 02:51:45;;;;;;;25.50;13.62;;;;;;;0.86;84.70;98948.09;1656691;87;21430;-86
2021/11/16 02:54:20;;;;;;;26.68;13.28;;;;;;;0.86;84.87;98939.86;1663670;85;21059;-87
2021/11/16 02:56:49;;;;;;;27.30;14.25;;;;;;;0.86;84.88;98945.08;1656592;86;21050;-86
2021/11/16 02:59:16;;;;;;;28.83;14.05;;;;;;;0.86;85.11;98940.27;1656617;86;21105;-86
2021/11/16 03:01:43;;;;;;;25.72;13.53;;;;;;;0.82;84.93;98947.59;1656757;86;21050;-86
2021/11/16 03:04:21;;;;;;;26.05;13.43;;;;;;;0.77;85.05;98947.45;1662458;85;21424;-86
2021/11/16 03:06:48;;;;;;;31.52;14.55;;;;;;;0.72;84.78;98943.44;1684255;84;21496;-86
2021/11/16 03:09:15;;;;;;;28.15;14.45;;;;;;;0.67;84.66;98943.75;1684156;85;20952;-86
2021/11/16 03:11:41;;;;;;;29.35;15.25;;;;;;;0.61;84.40;98943.16;1684108;84;21058;-86
2021/11/16 03:14:08;;;;;;;29.92;14.63;;;;;;;0.54;84.34;98945.12;1684271;84;21408;-86
2021/11/16 03:16:34;;;;;;;30.20;14.28;;;;;;;0.52;84.34;98928.56;1684242;85;21003;-86
2021/11/16 03:19:01;;;;;;;26.82;14.70;;;;;;;0.49;84.29;98937.61;1684126;84;21018;-86
2021/11/16 03:21:27;;;;;;;31.82;14.58;;;;;;;0.44;84.34;98927.47;1684234;84;21405;-86
2021/11/16 03:23:57;;;;;;;28.15;14.43;;;;;;;0.38;84.17;98939.52;1684263;84;20966;-87
2021/11/16 03:26:26;;;;;;;29.70;15.38;;;;;;;0.36;84.13;98933.39;1680592;85;20986;-86
2021/11/16 03:28:56;;;;;;;25.48;14.35;;;;;;;0.30;84.23;98933.23;1650144;86;22334;-86
2021/11/16 03:33:54;;;;;;;26.02;13.80;;;;;;;0.30;84.86;98941.46;1681984;85;21057;-86
2021/11/16 03:36:23;;;;;;;28.38;14.38;;;;;;;0.28;84.53;98940.11;1675615;84;21003;-85
2021/11/16 03:38:51;;;;;;;26.90;13.58;;;;;;;0.27;84.44;98933.14;1688035;85;21070;-86
2021/11/16 03:41:19;;;;;;;25.75;14.28;;;;;;;0.24;84.28;98933.94;1688106;85;21038;-86
2021/11/16 03:43:48;;;;;;;29.27;14.18;;;;;;;0.21;85.80;98935.59;1699417;84;21084;-86
2021/11/16 03:46:14;;;;;;;28.42;14.30;;;;;;;0.20;84.80;98937.73;1704850;84;21010;-87
2021/11/16 03:48:41;;;;;;;25.12;12.88;;;;;;;0.17;84.92;98938.50;1704943;83;21025;-86
2021/11/16 03:51:07;;;;;;;33.13;14.68;;;;;;;0.14;84.80;98937.14;1704912;84;21463;-87
2021/11/16 03:53:34;;;;;;;31.33;14.47;;;;;;;0.12;85.58;98933.17;1694517;83;21022;-87
2021/11/16 03:56:01;;;;;;;25.08;13.28;;;;;;;0.13;84.94;98931.47;1688258;84;21014;-86
2021/11/16 03:58:28;;;;;;;28.90;15.05;;;;;;;0.09;84.70;98930.47;1678623;85;21082;-86
2021/11/16 04:01:02;;;;;;;24.32;13.75;;;;;;;0.07;84.82;98924.34;1660508;86;21057;-86
2021/11/16 04:03:34;;;;;;;28.17;13.93;;;;;;;0.08;85.32;98930.46;1684508;84;21427;-86
2021/11/16 04:06:02;;;;;;;27.87;13.53;;;;;;;0.08;86.35;98931.77;1655367;86;21036;-86
2021/11/16 04:08:29;;;;;;;30.48;14.00;;;;;;;0.10;85.26;98929.66;1655132;86;21041;-86
2021/11/16 04:10:56;;;;;;;28.95;14.28;;;;;;;0.10;85.41;98923.14;1655154;87;21053;-86
2021/11/16 04:13:23;;;;;;;25.77;13.40;;;;;;;0.10;85.37;98924.85;1669459;84;20978;-86
2021/11/16 04:15:51;;;;;;;26.97;13.40;;;;;;;0.12;85.82;98927.07;1682460;85;21416;-86
2021/11/16 04:18:21;;;;;;;29.77;13.78;;;;;;;0.15;85.96;98923.25;1682714;85;21408;-86
2021/11/16 04:20:53;;;;;;;28.65;14.68;;;;;;;0.13;85.80;98928.42;1682635;85;20998;-85
2021/11/16 04:23:20;;;;;;;29.50;13.45;;;;;;;0.16;85.93;98925.02;1692778;84;21025;-86
2021/11/16 04:25:49;;;;;;;25.17;13.62;;;;;;;0.18;86.52;98925.06;1704973;83;20998;-86
2021/11/16 04:28:16;;;;;;;28.75;15.35;;;;;;;0.22;86.33;98932.13;1704813;83;21053;-86
2021/11/16 04:30:45;;;;;;;30.00;15.78;;;;;;;0.21;88.21;98931.23;1704289;83;21476;-86
2021/11/16 04:33:15;;;;;;;29.05;15.20;;;;;;;0.17;87.21;98937.20;1704704;84;21022;-86
2021/11/16 04:35:43;;;;;;;31.35;16.90;;;;;;;0.15;86.50;98927.58;1704712;84;21005;-86
2021/11/16 04:38:13;;;;;;;28.87;15.38;;;;;;;0.16;86.22;98943.70;1704820;83;21058;-86
2021/11/16 04:40:44;;;;;;;30.37;14.78;;;;;;;0.12;85.71;98928.38;1679386;84;21027;-86
2021/11/16 04:43:18;;;;;;;29.77;15.50;;;;;;;0.10;85.92;98920.95;1687237;85;21074;-85
2021/11/16 04:45:44;;;;;;;33.20;15.83;;;;;;;0.05;85.94;98932.97;1689160;85;21602;-84
2021/11/16 04:48:21;;;;;;;30.27;15.58;;;;;;;0.00;85.64;98928.95;1683665;85;21050;-86
2021/11/16 04:53:39;;;;;;;33.10;15.95;;;;;;;-0.19;85.73;98931.42;1660587;86;21082;-86
2021/11/16 05:04:04;;;;;;;31.27;15.75;;;;;;;-0.43;86.41;98938.98;1704836;83;21475;-86
2021/11/16 05:06:31;;;;;;;30.15;15.75;;;;;;;-0.45;86.12;98935.02;1704808;84;21041;-86
2021/11/16 05:08:57;;;;;;;31.02;15.88;;;;;;;-0.45;86.08;98940.23;1704805;83;21407;-86
2021/11/16 05:11:25;;;;;;;33.67;16.05;;;;;;;-0.57;87.13;98935.98;1699472;84;21041;-86
2021/11/16 05:13:52;;;;;;;33.02;16.12;;;;;;;-0.61;86.22;98938.02;1682636;85;21030;-85
2021/11/16 05:16:23;;;;;;;34.00;15.88;;;;;;;-0.61;86.29;98939.31;1687587;85;21011;-85
2021/11/16 05:18:51;;;;;;;34.63;15.63;;;;;;;-0.63;86.17;98939.27;1688084;85;21058;-85
2021/11/16 05:21:18;;;;;;;32.75;16.37;;;;;;;-0.64;85.85;98949.22;1688577;84;21003;-85
2021/11/16 05:23:58;;;;;;;32.95;16.80;;;;;;;-0.66;85.98;98943.09;1668404;85;21043;-86
2021/11/16 05:26:27;;;;;;;30.82;16.48;;;;;;;-0.67;85.78;98938.70;1681016;85;21007;-82
2021/11/16 05:29:00;;;;;;;28.87;14.40;;;;;;;-0.68;85.80;98953.86;1688198;85;21056;-83
2021/11/16 05:31:29;;;;;;;30.45;15.00;;;;;;;-0.67;85.81;98950.01;1688047;85;21047;-83
2021/11/16 05:33:56;;;;;;;35.65;17.42;;;;;;;-0.71;86.91;98953.34;1687724;85;21062;-82
2021/11/16 05:36:23;;;;;;;32.05;16.73;;;;;;;-0.69;86.14;98956.00;1688402;85;21038;-85
2021/11/16 05:38:51;;;;;;;29.92;15.48;;;;;;;-0.71;86.05;98961.16;1694710;84;21014;-82
2021/11/16 05:41:18;;;;;;;35.08;17.65;;;;;;;-0.72;86.24;98962.00;1695845;84;20978;-83
2021/11/16 05:43:47;;;;;;;33.30;15.75;;;;;;;-0.75;87.61;98948.87;1696096;84;21091;-82
2021/11/16 05:46:20;;;;;;;33.20;16.40;;;;;;;-0.76;86.70;98961.44;1695861;85;21487;-82
2021/11/16 05:48:45;;;;;;;39.90;16.85;;;;;;;-0.80;86.62;98956.55;1695789;85;21014;-82
2021/11/16 05:51:11;;;;;;;32.88;15.93;;;;;;;-0.76;86.20;98959.23;1695673;83;21085;-82
2021/11/16 05:53:40;;;;;;;38.83;18.20;;;;;;;-0.76;85.98;98964.44;1690801;84;21430;-82
2021/11/16 05:56:07;;;;;;;37.30;17.00;;;;;;;-0.78;87.35;98959.22;1691322;84;20978;-82
2021/11/16 05:58:34;;;;;;;35.98;17.82;;;;;;;-0.78;87.37;98962.22;1706651;83;21009;-82
2021/11/16 06:01:01;;;;;;;37.70;17.92;;;;;;;-0.78;87.04;98972.23;1725615;83;21422;-82
2021/11/16 06:03:28;;;;;;;32.13;16.82;;;;;;;-0.77;86.45;98971.38;1725793;83;21012;-82
2021/11/16 06:05:54;;;;;;;31.25;16.70;;;;;;;-0.74;86.60;98962.79;1725719;83;21012;-82
2021/11/16 06:08:25;;;;;;;35.10;18.00;;;;;;;-0.72;86.48;98964.60;1716962;83;20997;-83
2021/11/16 06:10:54;;;;;;;30.35;16.35;;;;;;;-0.71;86.66;98973.31;1689669;85;21033;-83
2021/11/16 06:13:21;;;;;;;42.60;18.52;;;;;;;-0.69;86.42;98976.83;1713372;83;21505;-82
2021/11/16 06:15:49;;;;;;;35.10;17.60;;;;;;;-0.69;86.36;98975.53;1725666;83;20996;-82
2021/11/16 06:18:21;;;;;;;40.43;18.52;;;;;;;-0.64;86.34;98973.95;1718815;83;21073;-82
2021/11/16 06:20:51;;;;;;;35.83;19.85;;;;;;;-0.61;86.05;98975.77;1690993;85;20998;-82
2021/11/16 06:23:17;;;;;;;38.45;19.17;;;;;;;-0.62;86.68;98974.88;1665280;85;21005;-82
2021/11/16 06:25:45;;;;;;;44.90;21.87;;;;;;;-0.61;87.79;98973.16;1691065;85;21025;-82
2021/11/16 06:28:12;;;;;;;40.63;20.37;;;;;;;-0.61;86.38;98974.06;1691340;84;21022;-82
2021/11/16 06:30:39;;;;;;;41.60;20.85;;;;;;;-0.59;86.72;98972.78;1691130;85;21069;-83
2021/11/16 06:33:05;;;;;;;40.90;19.95;;;;;;;-0.56;86.25;98977.69;1691355;84;22150;-83
2021/11/16 06:35:34;;;;;;;35.95;18.95;;;;;;;-0.54;86.35;98972.09;1690137;85;21102;-83
2021/11/16 06:38:01;;;;;;;43.60;20.17;;;;;;;-0.55;87.27;98972.05;1692496;84;21040;-83
2021/11/16 06:40:28;;;;;;;39.80;19.98;;;;;;;-0.54;86.79;98969.94;1695338;84;21480;-83
2021/11/16 06:42:55;;;;;;;43.20;20.75;;;;;;;-0.52;86.35;98958.23;1695672;84;21027;-83
2021/11/16 06:45:22;;;;;;;43.13;19.35;;;;;;;-0.48;86.80;98961.41;1695844;85;21067;-83
2021/11/16 06:47:50;;;;;;;38.25;20.02;;;;;;;-0.46;87.01;98964.52;1695943;84;21372;-83
2021/11/16 06:50:17;;;;;;;37.30;19.57;;;;;;;-0.41;86.58;98965.98;1696819;84;21505;-83
2021/11/16 06:52:45;;;;;;;37.85;19.92;;;;;;;-0.36;86.66;98964.39;1696259;85;21060;-83
2021/11/16 06:55:12;;;;;;;41.70;20.72;;;;;;;-0.29;86.42;98969.38;1696117;84;21032;-83
2021/11/16 06:57:42;;;;;;;40.38;20.32;;;;;;;-0.25;87.03;98954.70;1695882;85;21064;-83
2021/11/16 07:00:09;;;;;;;43.85;21.48;;;;;;;-0.17;86.56;98960.59;1695721;84;21114;-84
2021/11/16 07:02:39;;;;;;;39.38;21.87;;;;;;;-0.10;86.36;98960.36;1693062;84;21048;-87
2021/11/16 07:05:10;;;;;;;46.83;22.62;;;;;;;-0.05;86.50;98959.17;1667669;86;21048;-89
2021/11/16 07:07:45;;;;;;;44.53;21.93;;;;;;;0.01;86.27;98955.47;1685085;85;21013;-84
2021/11/16 07:10:16;;;;;;;52.78;23.18;;;;;;;0.08;86.00;98946.96;1695646;84;21046;-85
2021/11/16 07:12:43;;;;;;;48.83;22.35;;;;;;;0.12;85.97;98955.74;1692674;84;21117;-82
2021/11/16 07:15:12;;;;;;;43.80;21.73;;;;;;;0.20;86.11;98949.47;1683816;84;21420;-83
2021/11/16 07:17:40;;;;;;;51.40;23.05;;;;;;;0.30;86.01;98951.89;1694167;84;21050;-84
2021/11/16 07:20:10;;;;;;;48.95;21.07;;;;;;;0.39;86.15;98947.83;1712026;84;20989;-83
2021/11/16 07:22:37;;;;;;;48.40;22.35;;;;;;;0.48;86.18;98949.78;1712594;83;21463;-83
2021/11/16 07:25:13;;;;;;;39.30;20.60;;;;;;;0.57;86.30;98943.91;1712691;83;21033;-82
2021/11/16 07:27:45;;;;;;;37.88;20.17;;;;;;;0.64;85.92;98940.64;1712647;83;20993;-82
2021/11/16 07:30:23;;;;;;;54.35;25.43;;;;;;;0.71;86.22;98934.27;1695185;84;21503;-83
2021/11/16 07:32:56;;;;;;;47.03;23.60;;;;;;;0.83;85.93;98937.16;1695113;84;21443;-82
2021/11/16 07:35:28;;;;;;;;;;;;;;;0.92;86.13;98940.00;1697837;84;21072;-82
2021/11/16 07:38:03;;;;;;;41.28;20.37;;;;;;;1.02;86.49;98933.30;1700620;84;20090;-82
2021/11/16 07:40:32;;;;;;;50.55;23.95;;;;;;;1.14;86.20;98937.92;1706476;84;21034;-82
2021/11/16 07:43:04;;;;;;;49.88;24.35;;;;;;;1.25;86.06;98938.16;1708361;84;21434;-83
2021/11/16 07:45:48;;;;;;;48.73;23.80;;;;;;;1.35;86.99;98934.04;1708233;84;21065;-82
2021/11/16 07:48:19;;;;;;;51.45;24.87;;;;;;;1.47;86.42;98920.38;1702312;84;20975;-82
2021/11/16 07:50:53;;;;;;;45.90;24.67;;;;;;;1.58;86.34;98928.02;1695715;84;21396;-83
2021/11/16 07:53:38;;;;;;;50.28;24.67;;;;;;;1.69;86.13;98924.74;1696019;85;21014;-83
2021/11/16 07:56:20;;;;;;;45.30;23.12;;;;;;;1.80;86.73;98919.34;1691895;85;21031;-83
2021/11/16 07:58:57;;;;;;;47.67;24.52;;;;;;;1.93;86.17;98913.93;1703625;84;20965;-82
2021/11/16 08:01:37;;;;;;;56.85;25.50;;;;;;;2.04;85.80;98911.95;1695921;85;21042;-83
2021/11/16 08:04:21;;;;;;;50.12;24.55;;;;;;;2.13;85.80;98912.14;1700768;84;21061;-82
2021/11/16 08:07:00;;;;;;;48.85;24.52;;;;;;;2.21;85.74;98902.68;1707934;84;21056;-84
2021/11/16 08:14:52;;;;;;;44.18;22.20;;;;;;;2.56;85.95;98892.41;1694353;85;21061;-83
2021/11/16 08:17:18;;;;;;;41.10;21.55;;;;;;;2.72;86.58;98891.35;1689643;85;21057;-83
2021/11/16 08:19:45;;;;;;;46.73;21.30;;;;;;;2.86;85.95;98881.98;1694202;85;21021;-82
2021/11/16 08:22:15;;;;;;;39.92;20.50;;;;;;;2.98;85.64;98886.54;1696761;84;20942;-83
2021/11/16 08:24:46;;;;;;;42.67;21.07;;;;;;;3.10;85.75;98879.72;1708037;84;20998;-84
2021/11/16 08:27:20;;;;;;;42.78;21.42;;;;;;;3.21;85.63;98883.39;1708056;84;21138;-83
2021/11/16 08:30:05;;;;;;;42.10;21.42;;;;;;;3.31;85.47;98883.08;1708307;84;21442;-85
2021/11/16 08:32:38;;;;;;;46.20;19.35;;;;;;;3.43;85.25;98887.61;1703912;84;21058;-84
2021/11/16 08:35:20;;;;;;;38.08;20.10;;;;;;;3.56;85.08;98891.28;1695764;84;21057;-85
2021/11/16 08:37:48;;;;;;;42.48;20.32;;;;;;;3.67;84.85;98879.21;1696070;85;21452;-85
2021/11/16 08:40:19;;;;;;;43.42;19.92;;;;;;;3.80;84.71;98879.34;1696676;84;21031;-86
2021/11/16 08:43:00;;;;;;;42.95;20.75;;;;;;;3.92;84.60;98888.69;1708268;84;21048;-85
2021/11/16 08:45:37;;;;;;;44.35;19.92;;;;;;;4.04;84.31;98881.81;1708391;84;21023;-85
2021/11/16 08:48:15;;;;;;;41.50;20.50;;;;;;;4.17;84.09;98877.15;1708059;84;21034;-84
2021/11/16 08:50:49;;;;;;;40.85;20.55;;;;;;;4.29;83.96;98879.45;1704726;84;21112;-84
2021/11/16 08:53:24;;;;;;;40.90;20.23;;;;;;;4.40;83.76;98872.55;1696172;85;21050;-84
2021/11/16 08:55:52;;;;;;;36.50;18.62;;;;;;;4.53;83.61;98874.84;1695849;84;21113;-84
2021/11/16 08:58:20;;;;;;;42.78;21.35;;;;;;;4.69;83.28;98869.76;1670393;85;20991;-85
2021/11/16 09:00:52;;;;;;;45.60;23.25;;;;;;;4.84;82.72;98868.56;1695443;85;21020;-84
2021/11/16 09:03:26;;;;;;;41.10;19.27;;;;;;;5.00;82.23;98862.10;1694299;85;21056;-83
2021/11/16 09:05:56;;;;;;;36.55;18.65;;;;;;;5.15;81.99;98862.20;1694423;85;21025;-83
2021/11/16 09:08:31;;;;;;;31.48;17.27;;;;;;;5.29;81.36;98855.70;1694379;85;21040;-84
2021/11/16 09:11:04;;;;;;;31.82;17.80;;;;;;;5.42;80.64;98851.84;1694309;85;21005;-83
2021/11/16 09:13:34;;;;;;;35.30;18.27;;;;;;;5.57;81.07;98856.31;1694560;85;21040;-84
2021/11/16 09:16:09;;;;;;;37.90;17.73;;;;;;;5.71;79.02;98855.47;1697740;84;21025;-84
2021/11/16 09:18:44;;;;;;;32.50;16.50;;;;;;;5.83;78.76;98842.80;1696164;85;21018;-84
2021/11/16 09:21:16;;;;;;;30.85;16.27;;;;;;;5.95;78.82;98849.43;1706642;84;21025;-83
2021/11/16 09:23:49;;;;;;;32.55;15.88;;;;;;;6.05;78.62;98840.71;1708284;84;21037;-84
2021/11/16 09:26:33;;;;;;;24.52;13.93;;;;;;;6.19;77.36;98840.73;1708396;84;20998;-84
2021/11/16 09:29:05;;;;;;;29.20;15.08;;;;;;;6.41;75.89;98834.20;1706639;84;21013;-85
2021/11/16 09:31:44;;;;;;;25.68;14.05;;;;;;;6.58;77.18;98828.94;1707846;83;21097;-84
2021/11/16 09:34:19;;;;;;;27.52;13.85;;;;;;;6.74;75.61;98823.20;1708482;84;21017;-84
2021/11/16 09:37:00;;;;;;;26.12;14.00;;;;;;;6.91;74.94;98824.96;1699745;84;21368;-85
2021/11/16 09:39:35;;;;;;;25.00;13.35;;;;;;;7.09;73.58;98819.20;1632200;86;21080;-83
2021/11/16 09:42:06;;;;;;;24.40;13.18;;;;;;;7.20;74.43;98808.22;1623077;88;21100;-85
2021/11/16 09:44:43;;;;;;;23.60;13.05;;;;;;;7.32;73.81;98808.62;1618379;89;21003;-85
2021/11/16 09:47:19;;;;;;;25.23;13.00;;;;;;;7.42;73.73;98809.45;1596273;89;21028;-86
2021/11/16 09:49:57;;;;;;;24.12;13.90;;;;;;;7.51;71.70;98808.09;1619947;89;21060;-86
2021/11/16 09:52:41;;;;;;;23.67;13.05;;;;;;;7.63;73.13;98791.77;1592914;90;21100;-86
2021/11/16 09:55:20;;;;;;;24.25;12.85;;;;;;;7.74;72.22;98791.73;1622037;87;21148;-86
2021/11/16 09:57:55;;;;;;;21.62;12.03;;;;;;;7.87;72.49;98783.30;1628253;88;21023;-86
2021/11/16 10:00:33;;;;;;;23.87;11.95;;;;;;;8.00;71.46;98782.77;1660256;86;21054;-86
2021/11/16 10:03:05;;;;;;;22.95;11.93;;;;;;;8.08;71.42;98775.69;1667665;85;21017;-86
2021/11/16 10:05:42;;;;;;;24.43;13.72;;;;;;;8.19;70.99;98778.27;1672904;85;21118;-85
2021/11/16 10:08:11;;;;;;;22.17;12.98;;;;;;;8.27;71.37;98776.88;1659882;86;20994;-86
2021/11/16 10:10:42;;;;;;;21.95;12.70;;;;;;;8.36;70.92;98770.64;1660260;85;21098;-86
2021/11/16 10:13:16;;;;;;;21.02;11.38;;;;;;;8.43;68.65;98774.55;1659935;86;21243;-84
2021/11/16 10:15:47;;;;;;;20.30;11.97;;;;;;;8.53;66.58;98762.61;1659834;86;21106;-84
2021/11/16 10:18:17;;;;;;;19.67;11.97;;;;;;;8.65;66.59;98769.13;1659743;85;21486;-85
2021/11/16 10:20:47;;;;;;;23.10;12.47;;;;;;;8.75;66.72;98771.68;1658681;85;21505;-86
2021/11/16 10:23:19;;;;;;;23.07;12.07;;;;;;;8.83;65.61;98775.10;1657228;86;21041;-86
2021/11/16 10:25:55;;;;;;;24.92;13.68;;;;;;;8.93;66.19;98768.83;1652910;87;21066;-85
2021/11/16 10:28:23;;;;;;;20.82;12.35;;;;;;;9.01;66.28;98760.81;1655730;86;21030;-84
2021/11/16 10:30:51;;;;;;;19.45;11.78;;;;;;;9.45;66.67;98758.98;1658815;86;21074;-85
2021/11/16 10:33:25;;;;;;;20.27;11.43;;;;;;;10.51;64.83;98761.47;1659623;86;21396;-84
2021/11/16 10:36:00;;;;;;;18.67;11.12;;;;;;;11.67;63.44;98756.16;1659305;86;21022;-84
2021/11/16 10:38:45;;;;;;;21.73;13.78;;;;;;;12.76;58.31;98754.50;1656018;86;21038;-84
2021/11/16 10:41:23;;;;;;;21.48;14.03;;;;;;;13.82;57.71;98751.54;1682334;85;21045;-84
2021/11/16 10:43:58;;;;;;;22.80;14.73;;;;;;;14.81;57.38;98742.61;1681862;85;21025;-84
2021/11/16 10:46:32;;;;;;;19.70;12.58;;;;;;;15.73;54.74;98730.39;1686382;84;21026;-83
2021/11/16 10:49:05;;;;;;;18.65;12.40;;;;;;;16.55;50.85;98733.80;1688266;85;21039;-84
2021/11/16 10:51:34;;;;;;;19.67;14.07;;;;;;;17.09;47.14;98716.36;1688178;84;21046;-84
2021/11/16 10:54:03;;;;;;;18.67;12.68;;;;;;;17.71;46.09;98705.96;1695002;84;21010;-84
2021/11/16 10:56:35;;;;;;;21.42;13.43;;;;;;;18.15;45.74;98699.43;1703978;84;21069;-83
2021/11/16 10:59:18;;;;;;;17.82;13.05;;;;;;;18.43;42.34;98702.94;1704846;83;21030;-85
2021/11/16 11:01:52;;;;;;;19.27;13.45;;;;;;;18.89;38.55;98692.09;1704533;84;21100;-84
2021/11/16 11:04:31;;;;;;;19.17;13.38;;;;;;;19.25;37.50;98697.84;1703955;83;21014;-85
2021/11/16 11:07:11;;;;;;;20.65;15.20;;;;;;;19.72;40.22;98689.06;1660605;86;21095;-86
2021/11/16 11:09:39;;;;;;;19.40;14.18;;;;;;;20.23;38.29;98689.36;1658748;86;21030;-84
2021/11/16 11:12:23;;;;;;;21.65;14.58;;;;;;;20.47;36.18;98679.45;1666902;84;21002;-87
2021/11/16 11:14:55;;;;;;;21.27;14.73;;;;;;;20.93;37.79;98674.48;1704713;84;21006;-87
2021/11/16 11:17:19;;;;;;;22.35;14.90;;;;;;;21.08;32.33;98669.95;1704518;84;21021;-87
2021/11/16 11:19:45;;;;;;;20.17;14.60;;;;;;;21.15;34.58;98669.98;1703138;83;21053;-88
2021/11/16 11:22:25;;;;;;;21.90;14.18;;;;;;;21.29;32.71;98665.05;1704771;83;20998;-87
2021/11/16 11:25:09;;;;;;;19.98;13.60;;;;;;;21.49;33.29;98657.52;1704696;84;21005;-86
2021/11/16 11:27:36;;;;;;;20.52;14.13;;;;;;;21.41;32.90;98659.84;1703666;84;21002;-86
2021/11/16 11:30:14;;;;;;;23.45;16.73;;;;;;;20.94;30.42;98663.62;1688920;84;20971;-85
2021/11/16 11:32:44;;;;;;;21.37;14.35;;;;;;;20.84;33.64;98656.54;1690831;84;21100;-85
2021/11/16 11:35:23;;;;;;;22.60;15.45;;;;;;;20.71;31.76;98649.69;1688071;85;21026;-85
2021/11/16 11:38:01;;;;;;;22.85;14.70;;;;;;;20.05;32.65;98645.94;1687097;85;21045;-85
2021/11/16 11:40:39;;;;;;;23.98;15.55;;;;;;;19.47;34.95;98650.11;1688588;84;21456;-84
2021/11/16 11:43:17;;;;;;;21.00;14.60;;;;;;;19.30;33.54;98649.70;1705389;83;21056;-84
2021/11/16 11:45:47;;;;;;;24.45;15.63;;;;;;;19.58;34.43;98650.37;1725325;83;21056;-86
2021/11/16 11:48:19;;;;;;;20.45;15.78;;;;;;;20.00;35.04;98642.66;1709596;83;21518;-85
2021/11/16 11:50:59;;;;;;;21.57;15.00;;;;;;;19.94;33.73;98637.61;1689502;85;21044;-84
2021/11/16 11:53:31;;;;;;;20.90;15.38;;;;;;;19.98;34.16;98637.85;1692974;83;21420;-85
2021/11/16 11:56:03;;;;;;;24.87;15.93;;;;;;;19.72;32.94;98634.78;1694975;85;21026;-88
2021/11/16 11:58:35;;;;;;;22.32;15.48;;;;;;;19.21;32.31;98630.44;1719489;83;20989;-85